Time;durP1;ratioP1;P1;durP2;ratioP2;P2;SDS_P1;SDS_P2;PMS_P1;PMS_P2;Temp;Humidity;BMP_temperature;BMP_pressure;BME280_temperature;BME280_humidity;BME280_pressure;Samples;Min_cycle;Max_cycle;Signal;HPM_P1;HPM_P2
2022/01/27 00:02:05;;;;;;;0.20;0.20;;;0.90;99.90;;;;;;5051319;28;20033;-66
2022/01/27 00:04:51;;;;;;;2.40;2.05;;;0.90;99.90;;;;;;5050185;28;20092;-66
2022/01/27 00:07:17;;;;;;;0.60;0.35;;;0.90;99.90;;;;;;5049986;28;20563;-66
2022/01/27 00:09:49;;;;;;;0.10;0.10;;;0.90;99.90;;;;;;5051294;28;20052;-66
2022/01/27 00:12:18;;;;;;;1.08;1.05;;;0.90;99.90;;;;;;5051517;28;20060;-66
2022/01/27 00:14:57;;;;;;;0.57;0.57;;;0.90;99.90;;;;;;5049841;28;20202;-66
2022/01/27 00:17:29;;;;;;;1.15;1.05;;;0.80;99.90;;;;;;5066695;28;20033;-66
2022/01/27 00:19:55;;;;;;;0.20;0.20;;;0.80;99.90;;;;;;5066583;28;20068;-66
2022/01/27 00:22:21;;;;;;;1.52;0.98;;;0.80;99.90;;;;;;5050766;28;20048;-66
2022/01/27 00:24:48;;;;;;;0.10;0.10;;;0.80;99.90;;;;;;5051153;28;20033;-66
2022/01/27 00:27:14;;;;;;;0.25;0.25;;;0.80;99.90;;;;;;5050177;28;20056;-66
2022/01/27 00:29:40;;;;;;;0.52;0.52;;;0.80;99.90;;;;;;5066413;28;20547;-66
2022/01/27 00:32:06;;;;;;;1.45;1.40;;;0.80;99.90;;;;;;5049692;28;20082;-66
2022/01/27 00:34:32;;;;;;;3.85;3.55;;;0.70;99.90;;;;;;5051281;28;20033;-67
2022/01/27 00:36:58;;;;;;;0.65;0.65;;;0.80;99.90;;;;;;5050866;28;20040;-66
2022/01/27 00:39:23;;;;;;;3.17;2.88;;;0.80;99.90;;;;;;5066295;28;20048;-66
2022/01/27 00:41:49;;;;;;;1.15;1.05;;;0.80;99.90;;;;;;5051300;28;20073;-66
2022/01/27 00:44:15;;;;;;;0.50;0.50;;;0.70;99.90;;;;;;5051236;28;20033;-66
2022/01/27 00:46:41;;;;;;;18.42;1.92;;;0.80;99.90;;;;;;5050783;28;20386;-67
2022/01/27 00:49:07;;;;;;;0.63;0.63;;;0.80;99.90;;;;;;5050981;28;20083;-66
2022/01/27 00:51:37;;;;;;;0.77;0.77;;;0.80;99.90;;;;;;5051014;28;20054;-67
2022/01/27 00:54:17;;;;;;;3.50;2.70;;;0.80;99.90;;;;;;5051112;28;20102;-67
2022/01/27 00:56:50;;;;;;;0.52;0.52;;;0.80;99.90;;;;;;5049902;28;20123;-66
2022/01/27 00:59:55;;;;;;;0.47;0.47;;;0.80;99.90;;;;;;5054616;28;20079;-66
2022/01/27 01:05:08;;;;;;;1.20;0.95;;;0.70;99.90;;;;;;5053497;28;20104;-67
2022/01/27 01:07:38;;;;;;;0.65;0.65;;;0.70;99.90;;;;;;5052928;28;20044;-67
2022/01/27 01:15:22;;;;;;;0.55;0.55;;;0.70;99.90;;;;;;5054422;28;20033;-67
2022/01/27 01:18:08;;;;;;;0.20;0.20;;;0.70;99.90;;;;;;5054222;28;20047;-66
2022/01/27 01:21:26;;;;;;;1.65;1.55;;;0.70;99.90;;;;;;5052783;28;20033;-66
2022/01/27 01:31:51;;;;;;;0.20;0.20;;;0.70;99.90;;;;;;5053580;28;20669;-67
2022/01/27 01:34:24;;;;;;;1.02;1.02;;;0.70;99.90;;;;;;5052807;28;20029;-66
2022/01/27 01:37:02;;;;;;;1.38;1.27;;;0.70;99.90;;;;;;5053778;28;20489;-66
2022/01/27 01:39:33;;;;;;;0.10;0.10;;;0.70;99.90;;;;;;5053650;28;20033;-67
2022/01/27 01:42:07;;;;;;;0.77;0.77;;;0.70;99.90;;;;;;5052757;28;20061;-67
2022/01/27 01:44:33;;;;;;;4.57;1.00;;;0.70;99.90;;;;;;5053806;28;20325;-67
2022/01/27 01:46:59;;;;;;;0.75;0.75;;;0.70;99.90;;;;;;5052413;28;20037;-67
2022/01/27 01:49:26;;;;;;;1.45;1.35;;;0.60;99.90;;;;;;5053337;28;20094;-67
2022/01/27 01:52:03;;;;;;;0.30;0.30;;;0.60;99.90;;;;;;5053779;28;20029;-67
2022/01/27 01:54:29;;;;;;;0.10;0.10;;;0.60;99.90;;;;;;5051977;28;20040;-67
2022/01/27 01:56:55;;;;;;;0.13;0.13;;;0.60;99.90;;;;;;5053347;28;20117;-67
2022/01/27 01:59:21;;;;;;;1.33;0.57;;;0.50;99.90;;;;;;5053402;28;20029;-67
2022/01/27 02:01:48;;;;;;;14.35;2.90;;;0.50;99.90;;;;;;5052265;28;20462;-67
2022/01/27 02:04:13;;;;;;;0.20;0.20;;;0.60;99.90;;;;;;5053379;28;20041;-66
2022/01/27 02:06:49;;;;;;;3.15;1.77;;;0.50;99.90;;;;;;5051967;28;20044;-66
2022/01/27 02:09:25;;;;;;;1.35;1.10;;;0.60;99.90;;;;;;5051781;28;20037;-67
2022/01/27 02:20:08;;;;;;;0.70;0.70;;;0.40;99.90;;;;;;5052979;28;20035;-66
2022/01/27 02:22:34;;;;;;;1.33;1.27;;;0.50;99.90;;;;;;5052922;28;20043;-66
2022/01/27 02:25:00;;;;;;;0.63;0.63;;;0.40;99.90;;;;;;5052956;28;20036;-66
2022/01/27 02:27:26;;;;;;;1.10;1.10;;;0.40;99.90;;;;;;5052972;28;20059;-66
2022/01/27 02:29:52;;;;;;;3.63;2.05;;;0.40;99.90;;;;;;5053144;28;20037;-67
2022/01/27 02:32:19;;;;;;;0.10;0.10;;;0.40;99.90;;;;;;5052365;28;20087;-66
2022/01/27 02:34:45;;;;;;;0.10;0.10;;;0.50;99.90;;;;;;5052376;28;20124;-66
2022/01/27 02:37:12;;;;;;;0.43;0.43;;;0.50;99.90;;;;;;5052731;28;20033;-66
2022/01/27 02:39:39;;;;;;;0.75;0.75;;;0.60;99.90;;;;;;5052346;28;20040;-66
2022/01/27 02:42:34;;;;;;;0.35;0.35;;;0.50;99.90;;;;;;5052405;28;20490;-66
2022/01/27 02:45:16;;;;;;;0.25;0.25;;;0.50;99.90;;;;;;5052446;28;20037;-66
2022/01/27 02:47:42;;;;;;;2.75;1.55;;;0.50;99.90;;;;;;5050685;28;20035;-66
2022/01/27 02:50:09;;;;;;;1.02;1.00;;;0.50;99.90;;;;;;5067732;28;20033;-66
2022/01/27 02:52:35;;;;;;;1.23;1.23;;;0.40;99.90;;;;;;5052385;28;20044;-66
2022/01/27 02:55:01;;;;;;;0.43;0.43;;;0.40;99.90;;;;;;5051195;28;20037;-66
2022/01/27 02:57:27;;;;;;;5.28;1.75;;;0.40;99.90;;;;;;5052149;28;20043;-66
2022/01/27 02:59:53;;;;;;;0.38;0.38;;;0.40;99.90;;;;;;5050814;28;20078;-66
2022/01/27 03:02:20;;;;;;;1.58;1.48;;;0.40;99.90;;;;;;5052263;28;20043;-66
2022/01/27 03:04:46;;;;;;;2.40;2.28;;;0.40;99.90;;;;;;5050874;28;20029;-67
2022/01/27 03:07:12;;;;;;;0.10;0.10;;;0.30;99.90;;;;;;5050961;28;20462;-67
2022/01/27 03:09:38;;;;;;;0.38;0.38;;;0.30;99.90;;;;;;5066964;28;20029;-67
2022/01/27 03:12:07;;;;;;;0.10;0.10;;;0.30;99.90;;;;;;5050954;28;20044;-67
2022/01/27 03:14:34;;;;;;;0.68;0.68;;;0.40;99.90;;;;;;5050666;28;20030;-67
2022/01/27 03:17:03;;;;;;;0.17;0.17;;;0.30;99.90;;;;;;5050573;28;20116;-67
2022/01/27 03:19:29;;;;;;;1.60;1.50;;;0.40;99.90;;;;;;5051537;28;20538;-67
2022/01/27 03:21:56;;;;;;;1.35;1.23;;;0.30;99.90;;;;;;5051382;28;20112;-67
2022/01/27 03:24:24;;;;;;;0.40;0.40;;;0.40;99.90;;;;;;5050856;28;20033;-67
2022/01/27 03:26:51;;;;;;;5.63;1.75;;;0.30;99.90;;;;;;5050629;28;20108;-67
2022/01/27 03:29:18;;;;;;;1.23;1.13;;;0.30;99.90;;;;;;5051652;28;20033;-67
2022/01/27 03:31:45;;;;;;;0.25;0.25;;;0.30;99.90;;;;;;5051426;28;20052;-67
2022/01/27 03:34:12;;;;;;;0.47;0.47;;;0.30;99.90;;;;;;5050313;28;20029;-66
2022/01/27 03:36:38;;;;;;;0.82;0.82;;;0.30;99.90;;;;;;5051729;28;20037;-67
2022/01/27 03:39:07;;;;;;;4.03;0.98;;;0.30;99.90;;;;;;5051325;28;20036;-67
2022/01/27 03:41:34;;;;;;;5.72;3.53;;;0.30;99.90;;;;;;5051593;28;20032;-67
2022/01/27 03:44:01;;;;;;;0.20;0.20;;;0.30;99.90;;;;;;5050194;28;20071;-67
2022/01/27 03:46:27;;;;;;;0.10;0.10;;;0.30;99.90;;;;;;5051628;28;20494;-67
2022/01/27 03:48:53;;;;;;;0.10;0.10;;;0.20;99.90;;;;;;5050325;28;20029;-67
2022/01/27 03:51:18;;;;;;;0.22;0.22;;;0.30;99.90;;;;;;5051712;28;20649;-67
2022/01/27 03:53:44;;;;;;;0.93;0.93;;;0.30;99.90;;;;;;5051417;28;20064;-65
2022/01/27 03:56:10;;;;;;;0.10;0.10;;;0.30;99.90;;;;;;5051389;28;20029;-66
2022/01/27 03:58:36;;;;;;;1.08;1.08;;;0.30;99.90;;;;;;5051327;28;20472;-66
2022/01/27 04:01:04;;;;;;;0.85;0.82;;;0.30;99.90;;;;;;5051079;28;20093;-66
2022/01/27 04:03:33;;;;;;;1.23;1.08;;;0.30;99.90;;;;;;5051439;28;20024;-66
2022/01/27 04:06:09;;;;;;;6.90;1.70;;;0.20;99.90;;;;;;5051444;28;20037;-66
2022/01/27 04:08:38;;;;;;;0.82;0.73;;;0.20;99.90;;;;;;5051044;28;20079;-65
2022/01/27 04:11:05;;;;;;;1.55;1.45;;;0.20;99.90;;;;;;5049844;28;20029;-65
2022/01/27 04:13:31;;;;;;;0.10;0.10;;;0.20;99.90;;;;;;5050998;28;20550;-66
2022/01/27 04:15:57;;;;;;;0.10;0.10;;;0.20;99.90;;;;;;5051379;28;20082;-66
2022/01/27 04:18:23;;;;;;;0.63;0.63;;;0.30;99.90;;;;;;5050110;28;20025;-66
2022/01/27 04:20:49;;;;;;;3.03;2.15;;;0.30;99.90;;;;;;5051388;28;20037;-66
2022/01/27 04:23:17;;;;;;;0.43;0.43;;;0.20;99.90;;;;;;5051250;28;20033;-67
2022/01/27 04:25:44;;;;;;;1.17;1.08;;;0.20;99.90;;;;;;5051173;28;20056;-66
2022/01/27 04:28:13;;;;;;;1.10;1.10;;;0.20;99.90;;;;;;5051272;28;20033;-66
2022/01/27 04:30:39;;;;;;;0.85;0.85;;;0.20;99.90;;;;;;5049813;28;20029;-66
2022/01/27 04:33:06;;;;;;;1.27;1.17;;;0.20;99.90;;;;;;5051845;28;20041;-66
2022/01/27 04:35:36;;;;;;;0.55;0.55;;;0.30;99.90;;;;;;5054968;28;20037;-66
2022/01/27 04:38:16;;;;;;;0.80;0.80;;;0.20;99.90;;;;;;5055214;28;20035;-66
2022/01/27 04:48:53;;;;;;;0.55;0.55;;;0.30;99.90;;;;;;5054599;28;20037;-66
2022/01/27 04:51:22;;;;;;;0.10;0.10;;;0.30;99.90;;;;;;5054778;28;20123;-66
2022/01/27 04:56:20;;;;;;;0.63;0.63;;;0.20;99.90;;;;;;5054801;28;20029;-67
2022/01/27 04:58:49;;;;;;;0.25;0.25;;;0.20;99.90;;;;;;5054333;28;20119;-66
2022/01/27 05:01:17;;;;;;;5.50;2.08;;;0.20;99.90;;;;;;5067151;28;20126;-66
2022/01/27 05:03:52;;;;;;;2.95;2.50;;;0.20;99.90;;;;;;5074138;28;20767;-66
2022/01/27 05:06:18;;;;;;;1.05;1.05;;;0.10;99.90;;;;;;5089696;28;20389;-66
2022/01/27 05:08:43;;;;;;;5.25;2.90;;;0.20;99.90;;;;;;5072472;28;20043;-67
2022/01/27 05:11:16;;;;;;;0.10;0.10;;;0.20;99.90;;;;;;5054353;28;20033;-66
2022/01/27 05:13:53;;;;;;;2.10;1.90;;;0.20;99.90;;;;;;5053225;28;20083;-66
2022/01/27 05:16:19;;;;;;;0.13;0.13;;;0.20;99.90;;;;;;5053023;28;20112;-66
2022/01/27 05:18:44;;;;;;;1.35;1.25;;;0.20;99.90;;;;;;5053972;28;20127;-66
2022/01/27 05:21:10;;;;;;;0.10;0.10;;;0.20;99.90;;;;;;5053163;28;20025;-66
2022/01/27 05:23:36;;;;;;;0.40;0.30;;;0.30;99.90;;;;;;5053906;28;20040;-66
2022/01/27 05:26:02;;;;;;;0.20;0.20;;;0.30;99.90;;;;;;5052775;28;20025;-66
2022/01/27 05:28:28;;;;;;;2.85;1.98;;;0.30;99.90;;;;;;5054054;28;20041;-67
2022/01/27 05:30:54;;;;;;;1.48;1.38;;;0.10;99.90;;;;;;5069083;28;20036;-64
2022/01/27 05:33:20;;;;;;;0.70;0.47;;;0.10;99.90;;;;;;5053574;28;20079;-62
2022/01/27 05:35:46;;;;;;;0.15;0.15;;;0.10;99.90;;;;;;5053552;28;20478;-62
2022/01/27 05:38:15;;;;;;;0.10;0.10;;;0.20;99.90;;;;;;5052040;28;20029;-62
2022/01/27 05:40:43;;;;;;;0.50;0.50;;;0.10;99.90;;;;;;5052276;28;20481;-63
2022/01/27 05:43:10;;;;;;;0.90;0.50;;;0.10;99.90;;;;;;5068727;28;20041;-62
2022/01/27 05:45:36;;;;;;;0.45;0.45;;;0.10;99.90;;;;;;5053543;28;20029;-62
2022/01/27 05:48:03;;;;;;;0.63;0.63;;;0.10;99.90;;;;;;5068845;28;20481;-62
2022/01/27 05:50:29;;;;;;;0.40;0.40;;;0.10;99.90;;;;;;5053718;28;20083;-61
2022/01/27 05:52:55;;;;;;;0.75;0.75;;;0.10;99.90;;;;;;5053513;28;20136;-63
2022/01/27 05:55:21;;;;;;;0.70;0.70;;;0.10;99.90;;;;;;5053344;28;20104;-63
2022/01/27 05:57:47;;;;;;;0.40;0.40;;;0.10;99.90;;;;;;5053208;28;20374;-62
2022/01/27 06:00:13;;;;;;;0.40;0.40;;;0.10;99.90;;;;;;5071530;28;20028;-62
2022/01/27 06:02:39;;;;;;;0.63;0.63;;;0.10;99.90;;;;;;5093557;28;20044;-63
2022/01/27 06:05:05;;;;;;;0.68;0.68;;;0.10;99.90;;;;;;5093540;28;20028;-63
2022/01/27 06:07:31;;;;;;;0.30;0.30;;;0.10;99.90;;;;;;5108835;28;20488;-63
2022/01/27 06:09:58;;;;;;;0.73;0.70;;;0.20;99.90;;;;;;5093268;28;20043;-63
2022/01/27 06:12:24;;;;;;;0.88;0.55;;;0.10;99.90;;;;;;5093489;28;20043;-63
2022/01/27 06:14:50;;;;;;;0.60;0.60;;;0.20;99.90;;;;;;5093194;28;20024;-63
2022/01/27 06:17:16;;;;;;;0.32;0.32;;;0.20;99.90;;;;;;5093301;28;20157;-63
2022/01/27 06:19:44;;;;;;;0.47;0.47;;;0.10;99.90;;;;;;5093079;28;20107;-64
2022/01/27 06:22:14;;;;;;;0.30;0.30;;;0.20;99.90;;;;;;5093157;28;20038;-62
2022/01/27 06:24:45;;;;;;;0.10;0.10;;;0.10;99.90;;;;;;5093212;28;20036;-62
2022/01/27 06:27:11;;;;;;;0.10;0.10;;;0.20;99.90;;;;;;5093120;28;20036;-64
2022/01/27 06:29:39;;;;;;;0.30;0.30;;;0.20;99.90;;;;;;5088610;28;20028;-64
2022/01/27 06:32:07;;;;;;;0.95;0.77;;;0.20;99.90;;;;;;5072601;28;20033;-64
2022/01/27 06:34:35;;;;;;;0.30;0.30;;;0.20;99.90;;;;;;5071951;28;20048;-64
2022/01/27 06:37:01;;;;;;;1.70;0.70;;;0.20;99.90;;;;;;5070598;28;20294;-64
2022/01/27 06:39:27;;;;;;;0.20;0.20;;;0.20;99.90;;;;;;5072310;28;20034;-64
2022/01/27 06:41:53;;;;;;;2.30;2.20;;;0.20;99.90;;;;;;5072466;28;20028;-64
2022/01/27 06:44:19;;;;;;;1.88;1.77;;;0.20;99.90;;;;;;5072539;28;20036;-64
2022/01/27 06:46:44;;;;;;;0.10;0.10;;;0.20;99.90;;;;;;5071938;28;20118;-64
2022/01/27 06:49:16;;;;;;;0.30;0.30;;;0.20;99.90;;;;;;5088133;28;20111;-64
2022/01/27 06:51:45;;;;;;;0.55;0.55;;;0.30;99.90;;;;;;5070880;28;20132;-64
2022/01/27 06:54:12;;;;;;;0.77;0.77;;;0.20;99.90;;;;;;5071917;28;20460;-63
2022/01/27 06:56:39;;;;;;;0.30;0.30;;;0.30;99.90;;;;;;5071784;28;20025;-64
2022/01/27 06:59:05;;;;;;;0.40;0.40;;;0.30;99.90;;;;;;5072307;28;20074;-64
2022/01/27 07:01:31;;;;;;;5.38;1.17;;;0.30;99.90;;;;;;5070623;28;20032;-64
2022/01/27 07:03:58;;;;;;;0.10;0.10;;;0.40;99.90;;;;;;5071566;28;20519;-64
2022/01/27 07:06:24;;;;;;;0.20;0.20;;;0.40;99.90;;;;;;5072087;28;20020;-64
2022/01/27 07:08:50;;;;;;;0.20;0.20;;;0.30;99.90;;;;;;5071733;28;20094;-64
2022/01/27 07:11:15;;;;;;;0.10;0.10;;;0.30;99.90;;;;;;5070447;28;20032;-64
2022/01/27 07:13:42;;;;;;;0.75;0.73;;;0.20;99.90;;;;;;5053132;28;20052;-64
2022/01/27 07:16:08;;;;;;;0.20;0.20;;;0.20;99.90;;;;;;5050474;28;20017;-63
2022/01/27 07:18:34;;;;;;;6.43;3.88;;;0.20;99.90;;;;;;5051511;28;20435;-63
2022/01/27 07:21:00;;;;;;;0.50;0.50;;;0.20;99.90;;;;;;5051505;28;20083;-64
2022/01/27 07:23:26;;;;;;;0.40;0.40;;;0.20;99.90;;;;;;5051792;28;20037;-64
2022/01/27 07:25:51;;;;;;;0.52;0.52;;;0.20;99.90;;;;;;5050692;28;20029;-64
2022/01/27 07:28:17;;;;;;;0.30;0.30;;;0.20;99.90;;;;;;5050729;28;20056;-63
2022/01/27 07:30:43;;;;;;;2.05;0.95;;;0.20;99.90;;;;;;5051644;28;20089;-63
2022/01/27 07:33:09;;;;;;;0.10;0.10;;;0.20;99.90;;;;;;5051401;28;20140;-63
2022/01/27 07:35:35;;;;;;;1.42;1.38;;;0.10;99.90;;;;;;5067016;28;20041;-63
2022/01/27 07:38:01;;;;;;;0.10;0.10;;;0.10;99.90;;;;;;5051435;28;20072;-63
2022/01/27 07:40:29;;;;;;;0.20;0.20;;;0.20;99.90;;;;;;5051439;28;20438;-63
2022/01/27 07:42:55;;;;;;;0.77;0.77;;;0.10;99.90;;;;;;5051564;28;20071;-63
2022/01/27 07:45:21;;;;;;;2.92;2.72;;;0.10;99.90;;;;;;5051444;28;20607;-63
2022/01/27 07:47:46;;;;;;;6.38;2.83;;;0.10;99.90;;;;;;5051301;28;20037;-63
2022/01/27 07:50:12;;;;;;;0.50;0.50;;;0.00;99.90;;;;;;5066860;28;20029;-63
2022/01/27 07:52:41;;;;;;;2.03;1.85;;;0.00;99.90;;;;;;5051598;28;20516;-63
2022/01/27 07:55:10;;;;;;;0.10;0.10;;;0.00;99.90;;;;;;5050510;28;20163;-63
2022/01/27 07:57:37;;;;;;;0.22;0.22;;;0.00;99.90;;;;;;5050342;28;20029;-64
2022/01/27 08:00:06;;;;;;;0.20;0.20;;;0.00;99.90;;;;;;5051412;28;20032;-63
2022/01/27 08:02:32;;;;;;;1.38;1.27;;;0.00;99.90;;;;;;5051471;28;20059;-63
2022/01/27 08:04:58;;;;;;;0.30;0.30;;;0.00;99.90;;;;;;5051200;28;20761;-63
2022/01/27 08:07:24;;;;;;;1.00;0.93;;;0.00;99.90;;;;;;5054428;28;20224;-63
2022/01/27 08:09:50;;;;;;;0.65;0.65;;;0.00;99.90;;;;;;5055315;28;20141;-63
2022/01/27 08:12:16;;;;;;;0.30;0.30;;;-0.10;99.90;;;;;;5055587;28;20136;-63
2022/01/27 08:14:42;;;;;;;0.52;0.52;;;-0.10;99.90;;;;;;5055360;28;20430;-63
2022/01/27 08:17:08;;;;;;;1.25;0.50;;;-0.10;99.90;;;;;;5055544;28;20029;-63
2022/01/27 08:19:33;;;;;;;1.20;1.10;;;0.00;99.90;;;;;;5055338;28;20370;-63
2022/01/27 08:21:59;;;;;;;0.10;0.10;;;0.00;99.90;;;;;;5055276;28;20033;-64
2022/01/27 08:24:25;;;;;;;0.30;0.30;;;-0.10;99.90;;;;;;5055349;28;20032;-63
2022/01/27 08:26:58;;;;;;;0.20;0.20;;;-0.10;99.90;;;;;;5055016;28;20025;-63
2022/01/27 08:29:31;;;;;;;0.45;0.45;;;0.00;99.90;;;;;;5053806;28;20047;-63
2022/01/27 08:32:02;;;;;;;0.38;0.38;;;-0.10;99.90;;;;;;5054999;28;20049;-62
2022/01/27 08:34:38;;;;;;;0.20;0.20;;;0.00;99.90;;;;;;5055292;28;20036;-63
2022/01/27 08:37:11;;;;;;;0.55;0.55;;;0.00;99.90;;;;;;5036844;28;20051;-62
2022/01/27 08:39:38;;;;;;;3.80;2.80;;;0.00;99.90;;;;;;5054754;28;20083;-62
2022/01/27 08:42:07;;;;;;;0.10;0.10;;;0.00;99.90;;;;;;5053943;28;20067;-63
2022/01/27 08:44:33;;;;;;;0.65;0.65;;;0.00;99.90;;;;;;5054610;28;20037;-63
2022/01/27 08:46:59;;;;;;;2.78;2.05;;;0.00;99.90;;;;;;5054800;28;20029;-63
2022/01/27 08:49:27;;;;;;;0.10;0.10;;;-0.10;99.90;;;;;;5053806;28;20563;-63
2022/01/27 08:51:54;;;;;;;0.30;0.30;;;-0.10;99.90;;;;;;5053435;28;20040;-63
2022/01/27 08:54:20;;;;;;;0.20;0.20;;;-0.10;99.90;;;;;;5054871;28;20116;-63
2022/01/27 08:56:46;;;;;;;0.10;0.10;;;-0.10;99.90;;;;;;5054624;28;20155;-64
2022/01/27 08:59:12;;;;;;;0.55;0.55;;;-0.20;99.90;;;;;;5054594;28;20063;-63
2022/01/27 09:01:40;;;;;;;0.30;0.30;;;-0.20;99.90;;;;;;5056309;28;20506;-63
2022/01/27 09:04:07;;;;;;;2.90;2.65;;;-0.10;99.90;;;;;;5089791;28;20040;-64
2022/01/27 09:06:33;;;;;;;1.85;1.20;;;-0.20;99.90;;;;;;5073098;28;20029;-64
2022/01/27 09:09:00;;;;;;;0.15;0.15;;;-0.20;99.90;;;;;;5074332;28;20020;-63
2022/01/27 09:11:31;;;;;;;0.10;0.10;;;-0.20;99.90;;;;;;5074280;28;20028;-63
2022/01/27 09:14:04;;;;;;;0.63;0.63;;;-0.20;99.90;;;;;;5073110;28;20041;-63
2022/01/27 09:16:31;;;;;;;0.30;0.30;;;-0.30;99.90;;;;;;5072756;28;20043;-64
2022/01/27 09:19:02;;;;;;;0.10;0.10;;;-0.30;99.90;;;;;;5070057;28;20497;-63
2022/01/27 09:21:49;;;;;;;2.97;2.78;;;-0.30;99.90;;;;;;5073211;28;20036;-63
2022/01/27 09:24:17;;;;;;;0.10;0.10;;;-0.40;99.90;;;;;;5072902;28;20044;-63
2022/01/27 09:29:20;;;;;;;0.20;0.20;;;-0.30;99.90;;;;;;5074219;28;20075;-63
2022/01/27 09:31:50;;;;;;;1.02;1.02;;;-0.40;99.90;;;;;;5073420;28;20610;-63
2022/01/27 09:34:17;;;;;;;0.40;0.40;;;-0.40;99.90;;;;;;5073861;28;20040;-64
2022/01/27 09:36:49;;;;;;;0.22;0.22;;;-0.40;99.90;;;;;;5073948;28;20116;-63
2022/01/27 09:39:16;;;;;;;0.35;0.35;;;-0.30;99.90;;;;;;5073655;28;20029;-63
2022/01/27 09:41:43;;;;;;;2.25;2.13;;;-0.30;99.90;;;;;;5073736;28;20020;-64
2022/01/27 09:44:12;;;;;;;1.60;0.82;;;-0.30;99.90;;;;;;5089124;28;20040;-63
2022/01/27 09:46:45;;;;;;;1.35;1.25;;;-0.30;99.90;;;;;;5073679;28;20024;-63
2022/01/27 09:49:29;;;;;;;0.73;0.73;;;-0.30;99.90;;;;;;5089005;28;20032;-64
2022/01/27 09:51:55;;;;;;;0.43;0.43;;;-0.30;99.90;;;;;;5073366;28;20123;-63
2022/01/27 09:54:20;;;;;;;0.10;0.10;;;-0.40;99.90;;;;;;5073798;28;20116;-63
2022/01/27 09:56:52;;;;;;;0.10;0.10;;;-0.30;99.90;;;;;;5073361;28;20094;-63
2022/01/27 09:59:17;;;;;;;0.10;0.10;;;-0.30;99.90;;;;;;5073703;28;20133;-63
2022/01/27 10:02:07;;;;;;;0.10;0.10;;;-0.30;99.90;;;;;;5072353;28;20127;-63
2022/01/27 10:04:57;;;;;;;0.40;0.40;;;-0.30;99.90;;;;;;5073552;28;20029;-63
2022/01/27 10:07:45;;;;;;;0.10;0.10;;;-0.30;99.90;;;;;;5073385;28;20113;-64
2022/01/27 10:10:15;;;;;;;0.20;0.20;;;-0.30;99.90;;;;;;5073360;28;20542;-64
2022/01/27 10:12:47;;;;;;;0.85;0.85;;;-0.20;99.90;;;;;;5073348;28;20564;-63
2022/01/27 10:15:21;;;;;;;0.63;0.63;;;-0.20;99.90;;;;;;5073218;28;20044;-63
2022/01/27 10:18:14;;;;;;;1.05;1.05;;;-0.20;99.90;;;;;;5072966;28;20028;-63
2022/01/27 10:20:51;;;;;;;0.50;0.50;;;-0.20;99.90;;;;;;5071998;28;20033;-63
2022/01/27 10:23:32;;;;;;;4.13;2.97;;;-0.10;99.90;;;;;;5072972;28;20051;-63
2022/01/27 10:26:09;;;;;;;4.87;0.87;;;0.00;99.90;;;;;;5055811;28;20443;-63
2022/01/27 10:28:49;;;;;;;1.13;1.02;;;-0.10;99.90;;;;;;5071355;28;20325;-64
2022/01/27 10:31:23;;;;;;;0.32;0.32;;;-0.10;99.90;;;;;;5071980;28;20033;-64
2022/01/27 10:33:57;;;;;;;0.10;0.10;;;0.00;99.90;;;;;;5071737;28;20040;-63
2022/01/27 10:36:32;;;;;;;0.10;0.10;;;0.00;99.90;;;;;;5072491;28;20105;-64
2022/01/27 10:39:05;;;;;;;0.10;0.10;;;0.00;99.90;;;;;;5072700;28;20040;-64
2022/01/27 10:41:34;;;;;;;1.65;1.55;;;0.00;99.90;;;;;;5072479;28;20035;-63
2022/01/27 10:44:19;;;;;;;0.10;0.10;;;0.10;99.90;;;;;;5072268;28;20401;-63
2022/01/27 10:47:08;;;;;;;0.20;0.20;;;0.10;99.90;;;;;;5072847;28;20392;-64
2022/01/27 10:49:41;;;;;;;2.08;1.98;;;0.10;99.90;;;;;;5072456;28;20059;-63
2022/01/27 10:52:13;;;;;;;0.10;0.10;;;0.20;99.90;;;;;;5070982;28;20110;-62
2022/01/27 10:54:49;;;;;;;0.40;0.40;;;0.30;99.90;;;;;;5072576;28;20044;-62
2022/01/27 10:57:16;;;;;;;0.82;0.75;;;0.30;99.90;;;;;;5070947;28;20040;-63
2022/01/27 10:59:43;;;;;;;0.32;0.32;;;0.40;99.90;;;;;;5072339;28;20060;-63
2022/01/27 11:02:15;;;;;;;1.25;1.23;;;0.40;99.90;;;;;;5072208;28;20036;-63
2022/01/27 11:04:44;;;;;;;1.08;0.57;;;0.40;99.90;;;;;;5070549;28;20032;-63
2022/01/27 11:07:13;;;;;;;0.95;0.95;;;0.50;99.90;;;;;;5072067;28;20062;-63
2022/01/27 11:09:43;;;;;;;0.68;0.68;;;0.50;99.90;;;;;;5072061;28;20053;-63
2022/01/27 11:12:16;;;;;;;2.40;2.13;;;0.50;99.90;;;;;;5072146;28;20028;-63
2022/01/27 11:14:45;;;;;;;0.10;0.10;;;0.50;99.90;;;;;;5072077;28;20048;-63
2022/01/27 11:17:18;;;;;;;0.20;0.20;;;0.60;99.90;;;;;;5071937;28;20028;-63
2022/01/27 11:27:41;;;;;;;0.20;0.20;;;0.60;99.90;;;;;;5071746;28;20024;-64
2022/01/27 11:30:19;;;;;;;0.15;0.15;;;0.60;99.90;;;;;;5070161;28;20142;-63
2022/01/27 11:33:05;;;;;;;0.95;0.95;;;0.70;99.90;;;;;;5071319;28;20090;-62
2022/01/27 11:35:33;;;;;;;1.00;1.00;;;0.70;99.90;;;;;;5071666;28;20078;-63
2022/01/27 11:38:04;;;;;;;0.10;0.10;;;0.80;99.90;;;;;;5071498;28;20055;-62
2022/01/27 11:40:42;;;;;;;0.10;0.10;;;0.80;99.90;;;;;;5070464;28;20067;-63
2022/01/27 11:43:17;;;;;;;0.10;0.10;;;0.80;99.90;;;;;;5086839;28;20083;-62
2022/01/27 11:45:53;;;;;;;0.85;0.80;;;0.80;99.90;;;;;;5053657;28;20041;-63
2022/01/27 11:48:24;;;;;;;0.10;0.10;;;0.80;99.90;;;;;;5071338;28;20028;-63
2022/01/27 11:51:09;;;;;;;0.75;0.75;;;0.80;99.90;;;;;;5071201;28;20568;-63
2022/01/27 11:53:49;;;;;;;1.42;1.35;;;0.80;99.90;;;;;;5071695;28;20028;-63
2022/01/27 11:56:23;;;;;;;0.10;0.10;;;0.80;99.90;;;;;;5071544;28;20040;-66
2022/01/27 11:58:53;;;;;;;1.60;1.50;;;0.80;99.90;;;;;;5069867;28;20128;-67
2022/01/27 12:01:30;;;;;;;3.25;3.03;;;0.90;99.90;;;;;;5071495;28;20032;-67
2022/01/27 12:04:07;;;;;;;0.68;0.20;;;1.00;99.90;;;;;;5071496;28;20029;-67
2022/01/27 12:06:38;;;;;;;1.85;1.60;;;0.90;99.90;;;;;;5071507;28;20029;-67
2022/01/27 12:09:29;;;;;;;0.77;0.77;;;1.00;99.90;;;;;;5071423;28;20063;-66
2022/01/27 12:11:57;;;;;;;1.85;1.70;;;1.00;99.90;;;;;;5062349;28;20040;-67
2022/01/27 12:14:49;;;;;;;5.32;0.90;;;1.00;99.90;;;;;;5070223;28;20381;-67
2022/01/27 12:17:16;;;;;;;1.48;1.38;;;1.10;99.90;;;;;;5064167;28;20068;-67
2022/01/27 12:20:02;;;;;;;0.28;0.28;;;1.10;99.90;;;;;;5071398;28;20120;-67
2022/01/27 12:22:45;;;;;;;1.85;1.40;;;1.10;99.90;;;;;;5071284;28;20082;-67
2022/01/27 12:25:15;;;;;;;0.98;0.98;;;1.10;99.90;;;;;;5071316;28;20039;-67
2022/01/27 12:28:01;;;;;;;3.08;2.40;;;1.10;99.90;;;;;;5070161;28;20388;-66
2022/01/27 12:30:27;;;;;;;1.08;0.90;;;1.10;99.90;;;;;;5069658;28;20050;-67
2022/01/27 12:32:56;;;;;;;3.13;2.90;;;1.10;99.90;;;;;;5070876;28;20044;-66
2022/01/27 12:35:25;;;;;;;0.63;0.63;;;1.10;99.90;;;;;;5069557;28;20558;-66
2022/01/27 12:37:53;;;;;;;0.38;0.38;;;1.10;99.90;;;;;;5069704;28;20517;-66
2022/01/27 12:40:29;;;;;;;1.90;1.60;;;1.20;99.90;;;;;;5070088;28;20079;-66
2022/01/27 12:43:00;;;;;;;0.63;0.63;;;1.30;99.90;;;;;;5070888;28;20036;-66
2022/01/27 12:45:30;;;;;;;0.43;0.43;;;1.20;99.90;;;;;;5070104;28;20404;-68
2022/01/27 12:48:08;;;;;;;2.22;1.48;;;1.30;99.90;;;;;;5071044;28;20374;-70
2022/01/27 12:50:36;;;;;;;0.13;0.13;;;1.30;99.90;;;;;;5069896;28;20032;-67
2022/01/27 12:53:10;;;;;;;2.47;2.35;;;1.20;99.90;;;;;;5053453;28;20392;-66
2022/01/27 12:55:40;;;;;;;0.38;0.38;;;1.30;99.90;;;;;;5073433;28;20028;-67
2022/01/27 12:58:17;;;;;;;0.32;0.32;;;1.40;99.90;;;;;;5074494;28;20036;-66
2022/01/27 13:00:53;;;;;;;1.17;1.08;;;1.30;99.90;;;;;;5074521;28;20032;-66
2022/01/27 13:03:21;;;;;;;0.85;0.85;;;1.40;99.90;;;;;;5074433;28;20033;-66
2022/01/27 13:05:53;;;;;;;0.40;0.40;;;1.30;99.90;;;;;;5074591;28;20029;-66
2022/01/27 13:08:29;;;;;;;0.47;0.47;;;1.40;99.90;;;;;;5074644;28;20493;-66
2022/01/27 13:11:03;;;;;;;4.65;2.30;;;1.40;99.90;;;;;;5073824;28;20031;-67
2022/01/27 13:13:35;;;;;;;3.03;1.55;;;1.40;99.90;;;;;;5074203;28;20040;-67
2022/01/27 13:16:19;;;;;;;0.57;0.50;;;1.50;99.90;;;;;;5074072;28;20540;-65
2022/01/27 13:19:07;;;;;;;0.35;0.35;;;1.50;99.90;;;;;;5070133;28;20056;-66
2022/01/27 13:21:36;;;;;;;0.73;0.73;;;1.60;99.90;;;;;;5054899;28;20051;-66
2022/01/27 13:24:14;;;;;;;5.18;1.95;;;1.60;99.90;;;;;;5054043;28;20112;-66
2022/01/27 13:26:45;;;;;;;1.45;0.95;;;1.60;99.90;;;;;;5054335;28;20026;-66
2022/01/27 13:29:17;;;;;;;4.38;2.83;;;1.60;99.90;;;;;;5054254;28;20087;-65
2022/01/27 13:31:44;;;;;;;0.35;0.35;;;1.70;99.90;;;;;;5052693;28;20045;-65
2022/01/27 13:34:10;;;;;;;6.72;1.65;;;1.70;99.90;;;;;;5054053;28;20120;-66
2022/01/27 13:36:37;;;;;;;0.45;0.45;;;1.70;99.90;;;;;;5054188;28;20108;-67
2022/01/27 13:39:14;;;;;;;0.82;0.80;;;1.70;99.90;;;;;;5054008;28;20036;-67
2022/01/27 13:41:44;;;;;;;7.40;3.22;;;1.60;99.90;;;;;;5054062;28;20109;-68
2022/01/27 13:44:16;;;;;;;0.77;0.77;;;1.70;99.90;;;;;;5053656;28;20032;-67
2022/01/27 13:46:57;;;;;;;4.95;3.67;;;1.70;99.90;;;;;;5052934;28;20029;-68
2022/01/27 13:49:31;;;;;;;0.90;0.90;;;1.70;99.90;;;;;;5053818;28;20094;-67
2022/01/27 13:52:07;;;;;;;0.75;0.75;;;1.70;99.90;;;;;;5053947;28;20033;-67
2022/01/27 13:54:53;;;;;;;1.33;1.27;;;1.70;99.90;;;;;;5053936;28;20040;-67
2022/01/27 13:57:54;;;;;;;5.28;3.33;;;1.70;99.90;;;;;;5053561;28;20063;-67